TAF KBPK
KBPK 090526Z 0906/1006 17006KT P6SM SCT100 BKN250 WS020/20040KT FM091500 20010G20KT P6SM BKN250 FM100000 17005KT P6SM OVC250=
METAR KBPK
WC KBPK
WS KBPK
WV KBPK